sensor_id;sensor_type;location;lat;lon;timestamp;pressure;altitude;pressure_sealevel;temperature;humidity
24762;BME280;12865;51.934;10.330;2023-08-06T00:01:32;98348.81;;;16.01;100.00
24762;BME280;12865;51.934;10.330;2023-08-06T00:04:18;98349.84;;;16.00;100.00
24762;BME280;12865;51.934;10.330;2023-08-06T00:07:05;98346.13;;;16.01;100.00
24762;BME280;12865;51.934;10.330;2023-08-06T00:09:50;98343.25;;;16.03;100.00
24762;BME280;12865;51.934;10.330;2023-08-06T00:12:36;98336.19;;;16.02;100.00
24762;BME280;12865;51.934;10.330;2023-08-06T00:15:22;98335.56;;;16.00;100.00
24762;BME280;12865;51.934;10.330;2023-08-06T00:18:07;98333.66;;;15.94;100.00
24762;BME280;12865;51.934;10.330;2023-08-06T00:20:53;98325.78;;;15.92;100.00
24762;BME280;12865;51.934;10.330;2023-08-06T00:23:40;98323.94;;;15.93;100.00
24762;BME280;12865;51.934;10.330;2023-08-06T00:26:25;98323.31;;;15.91;100.00
24762;BME280;12865;51.934;10.330;2023-08-06T00:29:11;98323.50;;;15.89;100.00
24762;BME280;12865;51.934;10.330;2023-08-06T00:31:57;98318.50;;;15.86;100.00
24762;BME280;12865;51.934;10.330;2023-08-06T00:34:42;98317.66;;;15.86;100.00
24762;BME280;12865;51.934;10.330;2023-08-06T00:37:29;98322.03;;;15.87;100.00
24762;BME280;12865;51.934;10.330;2023-08-06T00:40:14;98316.66;;;15.87;100.00
24762;BME280;12865;51.934;10.330;2023-08-06T00:43:00;98314.59;;;15.89;100.00
24762;BME280;12865;51.934;10.330;2023-08-06T00:45:46;98305.19;;;16.06;100.00
24762;BME280;12865;51.934;10.330;2023-08-06T00:48:31;98293.13;;;15.95;100.00
24762;BME280;12865;51.934;10.330;2023-08-06T00:51:17;98294.53;;;15.91;100.00
24762;BME280;12865;51.934;10.330;2023-08-06T00:54:03;98285.69;;;15.91;100.00
24762;BME280;12865;51.934;10.330;2023-08-06T00:56:49;98288.38;;;15.91;100.00
24762;BME280;12865;51.934;10.330;2023-08-06T00:59:35;98274.66;;;15.86;100.00
24762;BME280;12865;51.934;10.330;2023-08-06T01:02:21;98271.97;;;15.86;100.00
24762;BME280;12865;51.934;10.330;2023-08-06T01:05:06;98276.94;;;15.82;100.00
24762;BME280;12865;51.934;10.330;2023-08-06T01:08:13;98272.75;;;15.80;100.00
24762;BME280;12865;51.934;10.330;2023-08-06T01:11:41;98276.66;;;15.77;100.00
24762;BME280;12865;51.934;10.330;2023-08-06T01:14:37;98272.53;;;15.75;100.00
24762;BME280;12865;51.934;10.330;2023-08-06T01:17:28;98265.28;;;15.75;100.00
24762;BME280;12865;51.934;10.330;2023-08-06T01:20:15;98259.94;;;15.75;100.00
24762;BME280;12865;51.934;10.330;2023-08-06T01:23:00;98256.78;;;15.71;100.00
24762;BME280;12865;51.934;10.330;2023-08-06T01:28:56;98256.50;;;15.60;100.00
24762;BME280;12865;51.934;10.330;2023-08-06T01:31:47;98239.94;;;15.56;100.00
24762;BME280;12865;51.934;10.330;2023-08-06T01:34:34;98243.25;;;15.58;100.00
24762;BME280;12865;51.934;10.330;2023-08-06T01:37:20;98243.44;;;15.57;100.00
24762;BME280;12865;51.934;10.330;2023-08-06T01:40:14;98241.41;;;15.59;100.00
24762;BME280;12865;51.934;10.330;2023-08-06T01:43:00;98235.84;;;15.60;100.00
24762;BME280;12865;51.934;10.330;2023-08-06T01:45:46;98236.47;;;15.62;100.00
24762;BME280;12865;51.934;10.330;2023-08-06T01:48:31;98227.59;;;15.62;100.00
24762;BME280;12865;51.934;10.330;2023-08-06T01:51:17;98219.31;;;15.63;100.00
24762;BME280;12865;51.934;10.330;2023-08-06T01:54:03;98222.00;;;15.63;100.00
24762;BME280;12865;51.934;10.330;2023-08-06T01:56:48;98219.72;;;15.60;100.00
24762;BME280;12865;51.934;10.330;2023-08-06T01:59:34;98222.22;;;15.62;100.00
24762;BME280;12865;51.934;10.330;2023-08-06T02:02:20;98216.31;;;15.52;100.00
24762;BME280;12865;51.934;10.330;2023-08-06T02:05:06;98217.94;;;15.46;100.00
24762;BME280;12865;51.934;10.330;2023-08-06T02:07:51;98221.44;;;15.47;100.00
24762;BME280;12865;51.934;10.330;2023-08-06T02:10:37;98209.88;;;15.46;100.00
24762;BME280;12865;51.934;10.330;2023-08-06T02:13:23;98214.59;;;15.44;100.00
24762;BME280;12865;51.934;10.330;2023-08-06T02:16:08;98199.09;;;15.40;100.00
24762;BME280;12865;51.934;10.330;2023-08-06T02:18:54;98199.50;;;15.43;100.00
24762;BME280;12865;51.934;10.330;2023-08-06T02:21:40;98202.84;;;15.45;100.00
24762;BME280;12865;51.934;10.330;2023-08-06T02:24:25;98210.06;;;15.45;100.00
24762;BME280;12865;51.934;10.330;2023-08-06T02:27:11;98213.66;;;15.30;100.00
24762;BME280;12865;51.934;10.330;2023-08-06T02:29:57;98204.91;;;15.22;100.00
24762;BME280;12865;51.934;10.330;2023-08-06T02:32:42;98195.84;;;15.23;100.00
24762;BME280;12865;51.934;10.330;2023-08-06T02:35:28;98189.81;;;15.21;100.00
24762;BME280;12865;51.934;10.330;2023-08-06T02:38:14;98184.22;;;15.16;100.00
24762;BME280;12865;51.934;10.330;2023-08-06T02:41:02;98181.28;;;15.11;100.00
24762;BME280;12865;51.934;10.330;2023-08-06T02:43:49;98184.94;;;15.03;100.00
24762;BME280;12865;51.934;10.330;2023-08-06T02:46:34;98189.09;;;15.06;100.00
24762;BME280;12865;51.934;10.330;2023-08-06T02:49:20;98177.34;;;15.07;100.00
24762;BME280;12865;51.934;10.330;2023-08-06T02:52:06;98171.53;;;15.03;100.00
24762;BME280;12865;51.934;10.330;2023-08-06T02:54:51;98175.28;;;15.09;100.00
24762;BME280;12865;51.934;10.330;2023-08-06T02:57:37;98170.56;;;15.11;100.00
24762;BME280;12865;51.934;10.330;2023-08-06T03:00:23;98173.88;;;15.13;100.00
24762;BME280;12865;51.934;10.330;2023-08-06T03:03:09;98170.16;;;15.14;100.00
24762;BME280;12865;51.934;10.330;2023-08-06T03:05:54;98161.28;;;15.13;100.00
24762;BME280;12865;51.934;10.330;2023-08-06T03:08:40;98155.72;;;15.15;100.00
24762;BME280;12865;51.934;10.330;2023-08-06T03:11:26;98156.53;;;15.15;100.00
24762;BME280;12865;51.934;10.330;2023-08-06T03:14:11;98141.25;;;15.16;100.00
24762;BME280;12865;51.934;10.330;2023-08-06T03:16:57;98147.22;;;15.11;100.00
24762;BME280;12865;51.934;10.330;2023-08-06T03:19:43;98133.56;;;15.06;100.00
24762;BME280;12865;51.934;10.330;2023-08-06T03:22:31;98137.09;;;15.07;100.00
24762;BME280;12865;51.934;10.330;2023-08-06T03:25:16;98138.28;;;15.04;100.00
24762;BME280;12865;51.934;10.330;2023-08-06T03:28:03;98136.63;;;15.03;100.00
24762;BME280;12865;51.934;10.330;2023-08-06T03:31:01;98135.16;;;15.01;100.00
24762;BME280;12865;51.934;10.330;2023-08-06T03:33:47;98143.59;;;14.98;100.00
24762;BME280;12865;51.934;10.330;2023-08-06T03:36:32;98130.38;;;14.96;100.00
24762;BME280;12865;51.934;10.330;2023-08-06T03:39:18;98128.06;;;14.93;100.00
24762;BME280;12865;51.934;10.330;2023-08-06T03:42:04;98122.50;;;14.94;100.00
24762;BME280;12865;51.934;10.330;2023-08-06T03:44:50;98122.28;;;14.89;100.00
24762;BME280;12865;51.934;10.330;2023-08-06T03:47:35;98113.38;;;14.89;100.00
24762;BME280;12865;51.934;10.330;2023-08-06T03:50:21;98114.53;;;14.80;100.00
24762;BME280;12865;51.934;10.330;2023-08-06T03:53:07;98116.63;;;14.78;100.00
24762;BME280;12865;51.934;10.330;2023-08-06T03:55:52;98122.81;;;14.78;100.00
24762;BME280;12865;51.934;10.330;2023-08-06T03:58:38;98129.38;;;14.76;100.00
24762;BME280;12865;51.934;10.330;2023-08-06T04:01:24;98129.19;;;14.77;100.00
24762;BME280;12865;51.934;10.330;2023-08-06T04:04:09;98125.88;;;14.75;100.00
24762;BME280;12865;51.934;10.330;2023-08-06T04:06:55;98120.25;;;14.70;100.00
24762;BME280;12865;51.934;10.330;2023-08-06T04:09:54;98138.19;;;14.70;100.00
24762;BME280;12865;51.934;10.330;2023-08-06T04:12:40;98128.09;;;14.72;100.00
24762;BME280;12865;51.934;10.330;2023-08-06T04:15:26;98124.38;;;14.73;100.00
24762;BME280;12865;51.934;10.330;2023-08-06T04:18:12;98120.50;;;14.75;100.00
24762;BME280;12865;51.934;10.330;2023-08-06T04:20:58;98124.44;;;14.79;100.00
24762;BME280;12865;51.934;10.330;2023-08-06T04:23:43;98121.56;;;14.81;100.00
24762;BME280;12865;51.934;10.330;2023-08-06T04:26:29;98115.00;;;14.83;100.00
24762;BME280;12865;51.934;10.330;2023-08-06T04:29:18;98116.06;;;14.89;100.00
24762;BME280;12865;51.934;10.330;2023-08-06T04:32:05;98112.56;;;14.88;100.00
24762;BME280;12865;51.934;10.330;2023-08-06T04:34:55;98122.66;;;14.86;100.00
24762;BME280;12865;51.934;10.330;2023-08-06T04:37:41;98124.72;;;14.84;100.00
24762;BME280;12865;51.934;10.330;2023-08-06T04:40:27;98129.25;;;14.84;100.00
24762;BME280;12865;51.934;10.330;2023-08-06T04:43:13;98128.59;;;14.82;100.00
24762;BME280;12865;51.934;10.330;2023-08-06T04:45:58;98123.88;;;14.84;100.00
24762;BME280;12865;51.934;10.330;2023-08-06T04:48:44;98122.88;;;14.85;100.00
24762;BME280;12865;51.934;10.330;2023-08-06T04:51:30;98123.47;;;14.87;100.00
24762;BME280;12865;51.934;10.330;2023-08-06T04:54:15;98119.59;;;14.89;100.00
24762;BME280;12865;51.934;10.330;2023-08-06T04:57:01;98119.97;;;14.86;100.00
24762;BME280;12865;51.934;10.330;2023-08-06T04:59:49;98117.28;;;14.86;100.00
24762;BME280;12865;51.934;10.330;2023-08-06T05:02:35;98116.03;;;14.82;100.00
24762;BME280;12865;51.934;10.330;2023-08-06T05:05:23;98117.50;;;14.85;100.00
24762;BME280;12865;51.934;10.330;2023-08-06T05:08:14;98124.06;;;14.82;100.00
24762;BME280;12865;51.934;10.330;2023-08-06T05:11:01;98117.09;;;14.88;100.00
24762;BME280;12865;51.934;10.330;2023-08-06T05:13:46;98125.38;;;14.93;100.00
24762;BME280;12865;51.934;10.330;2023-08-06T05:16:32;98117.56;;;14.91;100.00
24762;BME280;12865;51.934;10.330;2023-08-06T05:19:18;98121.25;;;14.90;100.00
24762;BME280;12865;51.934;10.330;2023-08-06T05:22:03;98103.84;;;14.86;100.00
24762;BME280;12865;51.934;10.330;2023-08-06T05:24:49;98111.72;;;14.88;100.00
24762;BME280;12865;51.934;10.330;2023-08-06T05:27:35;98110.53;;;14.90;100.00
24762;BME280;12865;51.934;10.330;2023-08-06T05:30:21;98109.91;;;14.95;100.00
24762;BME280;12865;51.934;10.330;2023-08-06T05:33:06;98115.47;;;14.93;100.00
24762;BME280;12865;51.934;10.330;2023-08-06T05:35:52;98104.69;;;14.87;100.00
24762;BME280;12865;51.934;10.330;2023-08-06T05:38:38;98107.19;;;14.88;100.00
24762;BME280;12865;51.934;10.330;2023-08-06T05:41:23;98111.59;;;14.96;100.00
24762;BME280;12865;51.934;10.330;2023-08-06T05:44:09;98105.56;;;14.94;100.00
24762;BME280;12865;51.934;10.330;2023-08-06T05:46:55;98111.72;;;14.88;100.00
24762;BME280;12865;51.934;10.330;2023-08-06T05:49:40;98104.13;;;14.91;100.00
24762;BME280;12865;51.934;10.330;2023-08-06T05:52:26;98105.84;;;14.99;100.00
24762;BME280;12865;51.934;10.330;2023-08-06T05:55:12;98102.38;;;15.05;100.00
24762;BME280;12865;51.934;10.330;2023-08-06T05:57:57;98109.19;;;15.08;100.00
24762;BME280;12865;51.934;10.330;2023-08-06T06:00:43;98110.28;;;15.13;100.00
24762;BME280;12865;51.934;10.330;2023-08-06T06:03:29;98107.66;;;15.20;100.00
24762;BME280;12865;51.934;10.330;2023-08-06T06:06:14;98112.22;;;15.26;100.00
24762;BME280;12865;51.934;10.330;2023-08-06T06:09:03;98119.03;;;15.28;100.00
24762;BME280;12865;51.934;10.330;2023-08-06T06:11:48;98105.47;;;15.37;100.00
24762;BME280;12865;51.934;10.330;2023-08-06T06:14:35;98104.88;;;15.41;100.00
24762;BME280;12865;51.934;10.330;2023-08-06T06:17:21;98105.53;;;15.50;100.00
24762;BME280;12865;51.934;10.330;2023-08-06T06:20:07;98103.56;;;15.58;100.00
24762;BME280;12865;51.934;10.330;2023-08-06T06:22:53;98093.66;;;15.65;100.00
24762;BME280;12865;51.934;10.330;2023-08-06T06:25:43;98104.47;;;15.79;100.00
24762;BME280;12865;51.934;10.330;2023-08-06T06:28:29;98094.56;;;15.79;100.00
24762;BME280;12865;51.934;10.330;2023-08-06T06:31:14;98099.34;;;15.84;100.00
24762;BME280;12865;51.934;10.330;2023-08-06T06:34:00;98101.44;;;15.95;100.00
24762;BME280;12865;51.934;10.330;2023-08-06T06:36:46;98096.50;;;16.05;100.00
24762;BME280;12865;51.934;10.330;2023-08-06T06:39:32;98096.56;;;16.12;100.00
24762;BME280;12865;51.934;10.330;2023-08-06T06:42:17;98090.38;;;16.24;100.00
24762;BME280;12865;51.934;10.330;2023-08-06T06:45:03;98091.63;;;16.41;100.00
24762;BME280;12865;51.934;10.330;2023-08-06T06:47:49;98091.88;;;16.46;100.00
24762;BME280;12865;51.934;10.330;2023-08-06T06:50:35;98089.19;;;16.60;100.00
24762;BME280;12865;51.934;10.330;2023-08-06T06:53:21;98091.09;;;16.72;100.00
24762;BME280;12865;51.934;10.330;2023-08-06T06:56:12;98083.41;;;16.76;100.00
24762;BME280;12865;51.934;10.330;2023-08-06T06:58:58;98084.06;;;16.84;100.00
24762;BME280;12865;51.934;10.330;2023-08-06T07:01:44;98083.22;;;16.84;100.00
24762;BME280;12865;51.934;10.330;2023-08-06T07:04:29;98088.19;;;16.94;100.00
24762;BME280;12865;51.934;10.330;2023-08-06T07:07:15;98081.13;;;17.06;100.00
24762;BME280;12865;51.934;10.330;2023-08-06T07:10:01;98084.66;;;17.13;100.00
24762;BME280;12865;51.934;10.330;2023-08-06T07:12:47;98078.66;;;17.04;100.00
24762;BME280;12865;51.934;10.330;2023-08-06T07:15:32;98073.50;;;17.09;100.00
24762;BME280;12865;51.934;10.330;2023-08-06T07:18:18;98076.97;;;17.30;100.00
24762;BME280;12865;51.934;10.330;2023-08-06T07:21:04;98072.97;;;17.45;100.00
24762;BME280;12865;51.934;10.330;2023-08-06T07:23:49;98073.78;;;17.72;100.00
24762;BME280;12865;51.934;10.330;2023-08-06T07:26:35;98075.97;;;17.88;100.00
24762;BME280;12865;51.934;10.330;2023-08-06T07:29:21;98074.22;;;18.07;100.00
24762;BME280;12865;51.934;10.330;2023-08-06T07:32:07;98064.97;;;18.28;100.00
24762;BME280;12865;51.934;10.330;2023-08-06T07:34:53;98058.88;;;18.39;100.00
24762;BME280;12865;51.934;10.330;2023-08-06T07:37:44;98062.94;;;17.85;100.00
24762;BME280;12865;51.934;10.330;2023-08-06T07:40:30;98064.91;;;18.03;100.00
24762;BME280;12865;51.934;10.330;2023-08-06T07:43:16;98069.19;;;18.17;100.00
24762;BME280;12865;51.934;10.330;2023-08-06T07:46:01;98067.88;;;18.26;100.00
24762;BME280;12865;51.934;10.330;2023-08-06T07:48:47;98069.94;;;18.31;100.00
24762;BME280;12865;51.934;10.330;2023-08-06T07:51:33;98072.00;;;18.35;100.00
24762;BME280;12865;51.934;10.330;2023-08-06T07:54:18;98069.25;;;18.42;100.00
24762;BME280;12865;51.934;10.330;2023-08-06T07:57:04;98063.63;;;18.43;100.00
24762;BME280;12865;51.934;10.330;2023-08-06T07:59:50;98062.03;;;18.67;100.00
24762;BME280;12865;51.934;10.330;2023-08-06T08:02:36;98064.88;;;18.72;100.00
24762;BME280;12865;51.934;10.330;2023-08-06T08:05:22;98069.75;;;18.64;100.00
24762;BME280;12865;51.934;10.330;2023-08-06T08:08:08;98055.34;;;18.95;100.00
24762;BME280;12865;51.934;10.330;2023-08-06T08:10:54;98053.88;;;18.99;100.00
24762;BME280;12865;51.934;10.330;2023-08-06T08:13:44;98057.94;;;19.08;100.00
24762;BME280;12865;51.934;10.330;2023-08-06T08:16:29;98051.97;;;19.24;100.00
24762;BME280;12865;51.934;10.330;2023-08-06T08:19:15;98050.78;;;19.38;100.00
24762;BME280;12865;51.934;10.330;2023-08-06T08:22:01;98053.94;;;19.72;100.00
24762;BME280;12865;51.934;10.330;2023-08-06T08:24:46;98050.50;;;19.65;100.00
24762;BME280;12865;51.934;10.330;2023-08-06T08:27:32;98041.78;;;19.63;100.00
24762;BME280;12865;51.934;10.330;2023-08-06T08:30:18;98048.38;;;19.85;100.00
24762;BME280;12865;51.934;10.330;2023-08-06T08:33:03;98045.41;;;19.75;100.00
24762;BME280;12865;51.934;10.330;2023-08-06T08:35:49;98044.88;;;19.66;100.00
24762;BME280;12865;51.934;10.330;2023-08-06T08:38:35;98037.19;;;19.63;100.00
24762;BME280;12865;51.934;10.330;2023-08-06T08:41:20;98034.09;;;19.78;100.00
24762;BME280;12865;51.934;10.330;2023-08-06T08:44:08;98038.06;;;19.93;100.00
24762;BME280;12865;51.934;10.330;2023-08-06T08:46:55;98036.59;;;19.79;100.00
24762;BME280;12865;51.934;10.330;2023-08-06T08:49:43;98037.75;;;20.02;97.78
24762;BME280;12865;51.934;10.330;2023-08-06T08:52:31;98032.13;;;20.33;100.00
24762;BME280;12865;51.934;10.330;2023-08-06T08:55:17;98038.31;;;20.63;97.60
24762;BME280;12865;51.934;10.330;2023-08-06T08:58:03;98036.00;;;20.90;94.81
24762;BME280;12865;51.934;10.330;2023-08-06T09:00:49;98043.06;;;20.91;91.14
24762;BME280;12865;51.934;10.330;2023-08-06T09:03:36;98041.19;;;20.92;92.21
24762;BME280;12865;51.934;10.330;2023-08-06T09:06:23;98030.50;;;21.20;91.38
24762;BME280;12865;51.934;10.330;2023-08-06T09:09:16;98028.00;;;21.42;89.12
24762;BME280;12865;51.934;10.330;2023-08-06T09:12:12;98030.88;;;21.75;87.33
24762;BME280;12865;51.934;10.330;2023-08-06T09:14:59;98027.75;;;21.32;88.43
24762;BME280;12865;51.934;10.330;2023-08-06T09:17:45;98025.41;;;21.24;90.46
24762;BME280;12865;51.934;10.330;2023-08-06T09:23:20;98021.28;;;20.86;90.70
24762;BME280;12865;51.934;10.330;2023-08-06T09:26:06;98013.97;;;20.87;93.18
24762;BME280;12865;51.934;10.330;2023-08-06T09:28:52;98023.88;;;20.81;90.82
24762;BME280;12865;51.934;10.330;2023-08-06T09:31:45;98022.09;;;20.98;91.99
24762;BME280;12865;51.934;10.330;2023-08-06T09:34:31;98021.03;;;20.99;92.85
24762;BME280;12865;51.934;10.330;2023-08-06T09:37:16;98028.09;;;20.77;92.96
24762;BME280;12865;51.934;10.330;2023-08-06T09:40:02;98020.13;;;20.41;95.77
24762;BME280;12865;51.934;10.330;2023-08-06T09:42:48;98023.44;;;20.43;95.95
24762;BME280;12865;51.934;10.330;2023-08-06T09:45:37;98025.31;;;20.12;98.01
24762;BME280;12865;51.934;10.330;2023-08-06T09:48:24;98023.91;;;20.10;98.19
24762;BME280;12865;51.934;10.330;2023-08-06T09:51:10;98025.59;;;20.22;94.95
24762;BME280;12865;51.934;10.330;2023-08-06T09:54:00;98028.00;;;20.00;97.51
24762;BME280;12865;51.934;10.330;2023-08-06T09:56:46;98016.25;;;20.07;97.83
24762;BME280;12865;51.934;10.330;2023-08-06T09:59:32;98019.31;;;20.40;96.29
24762;BME280;12865;51.934;10.330;2023-08-06T10:02:21;98016.22;;;20.66;91.98
24762;BME280;12865;51.934;10.330;2023-08-06T10:05:10;98004.06;;;20.57;92.06
24762;BME280;12865;51.934;10.330;2023-08-06T10:07:57;98002.44;;;20.80;90.22
24762;BME280;12865;51.934;10.330;2023-08-06T10:10:44;97998.16;;;21.42;90.76
24762;BME280;12865;51.934;10.330;2023-08-06T10:13:31;98009.34;;;21.97;85.52
24762;BME280;12865;51.934;10.330;2023-08-06T10:16:19;97998.91;;;21.66;81.08
24762;BME280;12865;51.934;10.330;2023-08-06T10:19:09;97998.38;;;21.52;81.73
24762;BME280;12865;51.934;10.330;2023-08-06T10:22:14;97998.19;;;21.19;79.53
24762;BME280;12865;51.934;10.330;2023-08-06T10:25:02;98001.00;;;21.24;80.89
24762;BME280;12865;51.934;10.330;2023-08-06T10:30:46;97994.31;;;21.26;76.90
24762;BME280;12865;51.934;10.330;2023-08-06T10:33:42;97985.13;;;21.27;77.66
24762;BME280;12865;51.934;10.330;2023-08-06T10:36:29;97986.75;;;21.28;77.50
24762;BME280;12865;51.934;10.330;2023-08-06T10:39:15;97980.84;;;21.31;78.40
24762;BME280;12865;51.934;10.330;2023-08-06T10:42:01;97977.78;;;21.39;74.03
24762;BME280;12865;51.934;10.330;2023-08-06T10:45:15;97971.16;;;21.47;74.32
24762;BME280;12865;51.934;10.330;2023-08-06T10:48:02;97970.78;;;21.55;74.37
24762;BME280;12865;51.934;10.330;2023-08-06T10:50:48;97969.28;;;21.76;70.52
24762;BME280;12865;51.934;10.330;2023-08-06T10:53:34;97968.50;;;22.04;73.06
24762;BME280;12865;51.934;10.330;2023-08-06T10:56:22;97962.28;;;22.37;70.48
24762;BME280;12865;51.934;10.330;2023-08-06T10:59:08;97961.34;;;22.76;69.22
24762;BME280;12865;51.934;10.330;2023-08-06T11:01:56;97949.22;;;22.84;68.79
24762;BME280;12865;51.934;10.330;2023-08-06T11:04:42;97947.84;;;23.03;67.28
24762;BME280;12865;51.934;10.330;2023-08-06T11:07:29;97947.94;;;22.08;69.34
24762;BME280;12865;51.934;10.330;2023-08-06T11:10:15;97945.00;;;22.59;68.52
24762;BME280;12865;51.934;10.330;2023-08-06T11:13:03;97940.56;;;22.87;66.78
24762;BME280;12865;51.934;10.330;2023-08-06T11:15:49;97938.53;;;22.99;66.30
24762;BME280;12865;51.934;10.330;2023-08-06T11:18:35;97935.00;;;22.77;66.18
24762;BME280;12865;51.934;10.330;2023-08-06T11:21:21;97937.78;;;22.82;67.01
24762;BME280;12865;51.934;10.330;2023-08-06T11:24:07;97922.78;;;23.18;66.17
24762;BME280;12865;51.934;10.330;2023-08-06T11:26:53;97925.56;;;23.23;66.29
24762;BME280;12865;51.934;10.330;2023-08-06T11:29:38;97925.56;;;23.23;65.97
24762;BME280;12865;51.934;10.330;2023-08-06T11:32:24;97930.00;;;23.51;65.94
24762;BME280;12865;51.934;10.330;2023-08-06T11:35:11;97929.16;;;23.28;64.70
24762;BME280;12865;51.934;10.330;2023-08-06T11:37:56;97928.78;;;23.63;65.34
24762;BME280;12865;51.934;10.330;2023-08-06T11:40:45;97923.59;;;23.40;63.91
24762;BME280;12865;51.934;10.330;2023-08-06T11:43:31;97918.81;;;23.25;67.17
24762;BME280;12865;51.934;10.330;2023-08-06T11:46:17;97918.19;;;22.63;67.59
24762;BME280;12865;51.934;10.330;2023-08-06T11:49:02;97921.13;;;22.78;70.57
24762;BME280;12865;51.934;10.330;2023-08-06T11:51:48;97918.50;;;22.83;68.88
24762;BME280;12865;51.934;10.330;2023-08-06T11:54:34;97922.28;;;22.32;70.67
24762;BME280;12865;51.934;10.330;2023-08-06T11:57:20;97911.44;;;22.32;73.36
24762;BME280;12865;51.934;10.330;2023-08-06T12:00:07;97910.69;;;22.53;72.55
24762;BME280;12865;51.934;10.330;2023-08-06T12:02:54;97908.44;;;22.50;68.58
24762;BME280;12865;51.934;10.330;2023-08-06T12:05:41;97910.63;;;22.48;69.77
24762;BME280;12865;51.934;10.330;2023-08-06T12:08:27;97914.66;;;21.84;70.86
24762;BME280;12865;51.934;10.330;2023-08-06T12:11:13;97912.56;;;21.74;73.12
24762;BME280;12865;51.934;10.330;2023-08-06T12:13:59;97900.22;;;22.62;71.00
24762;BME280;12865;51.934;10.330;2023-08-06T12:16:45;97891.06;;;23.06;66.70
24762;BME280;12865;51.934;10.330;2023-08-06T12:19:30;97899.38;;;23.17;63.63
24762;BME280;12865;51.934;10.330;2023-08-06T12:22:17;97907.09;;;23.03;64.82
24762;BME280;12865;51.934;10.330;2023-08-06T12:25:04;97902.09;;;23.38;65.43
24762;BME280;12865;51.934;10.330;2023-08-06T12:27:53;97900.25;;;23.66;59.72
24762;BME280;12865;51.934;10.330;2023-08-06T12:30:39;97902.41;;;23.64;59.59
24762;BME280;12865;51.934;10.330;2023-08-06T12:33:27;97900.78;;;23.19;64.02
24762;BME280;12865;51.934;10.330;2023-08-06T12:36:15;97901.03;;;23.61;59.40
24762;BME280;12865;51.934;10.330;2023-08-06T12:39:01;97893.78;;;23.28;64.73
24762;BME280;12865;51.934;10.330;2023-08-06T12:41:47;97895.25;;;23.14;61.14
24762;BME280;12865;51.934;10.330;2023-08-06T12:44:32;97892.72;;;23.07;62.22
24762;BME280;12865;51.934;10.330;2023-08-06T12:47:19;97896.06;;;23.15;64.78
24762;BME280;12865;51.934;10.330;2023-08-06T12:50:05;97896.69;;;23.00;67.39
24762;BME280;12865;51.934;10.330;2023-08-06T12:52:51;97901.94;;;22.85;64.59
24762;BME280;12865;51.934;10.330;2023-08-06T12:55:37;97900.38;;;23.10;66.14
24762;BME280;12865;51.934;10.330;2023-08-06T12:58:22;97893.75;;;23.01;63.76
24762;BME280;12865;51.934;10.330;2023-08-06T13:01:08;97895.97;;;23.04;67.39
24762;BME280;12865;51.934;10.330;2023-08-06T13:03:57;97893.28;;;22.88;63.70
24762;BME280;12865;51.934;10.330;2023-08-06T13:06:43;97897.00;;;22.82;66.48
24762;BME280;12865;51.934;10.330;2023-08-06T13:09:29;97903.03;;;22.84;65.32
24762;BME280;12865;51.934;10.330;2023-08-06T13:12:16;97904.84;;;22.61;66.53
24762;BME280;12865;51.934;10.330;2023-08-06T13:15:04;97905.00;;;22.55;67.96
24762;BME280;12865;51.934;10.330;2023-08-06T13:17:50;97903.28;;;22.49;69.98
24762;BME280;12865;51.934;10.330;2023-08-06T13:20:38;97907.16;;;22.19;75.53
24762;BME280;12865;51.934;10.330;2023-08-06T13:23:25;97907.31;;;22.13;77.09
24762;BME280;12865;51.934;10.330;2023-08-06T13:26:10;97905.75;;;22.00;76.54
24762;BME280;12865;51.934;10.330;2023-08-06T13:28:58;97900.56;;;21.87;81.48
24762;BME280;12865;51.934;10.330;2023-08-06T13:31:43;97896.66;;;21.66;87.08
24762;BME280;12865;51.934;10.330;2023-08-06T13:34:29;97900.84;;;21.29;88.74
24762;BME280;12865;51.934;10.330;2023-08-06T13:37:15;97899.13;;;21.51;90.28
24762;BME280;12865;51.934;10.330;2023-08-06T13:40:00;97900.84;;;21.85;92.74
24762;BME280;12865;51.934;10.330;2023-08-06T13:42:46;97907.28;;;21.96;94.92
24762;BME280;12865;51.934;10.330;2023-08-06T13:45:32;97908.03;;;21.80;90.55
24762;BME280;12865;51.934;10.330;2023-08-06T13:48:19;97914.38;;;21.97;92.63
24762;BME280;12865;51.934;10.330;2023-08-06T13:51:05;97902.34;;;21.93;93.67
24762;BME280;12865;51.934;10.330;2023-08-06T13:53:50;97909.53;;;21.87;97.31
24762;BME280;12865;51.934;10.330;2023-08-06T13:56:37;97906.59;;;21.89;90.81
24762;BME280;12865;51.934;10.330;2023-08-06T13:59:23;97911.34;;;21.82;95.59
24762;BME280;12865;51.934;10.330;2023-08-06T14:02:10;97912.19;;;21.54;92.06
24762;BME280;12865;51.934;10.330;2023-08-06T14:04:55;97909.22;;;21.55;87.11
24762;BME280;12865;51.934;10.330;2023-08-06T14:07:41;97910.22;;;21.38;88.53
24762;BME280;12865;51.934;10.330;2023-08-06T14:10:27;97906.72;;;21.26;88.05
24762;BME280;12865;51.934;10.330;2023-08-06T14:13:12;97906.97;;;21.12;88.02
24762;BME280;12865;51.934;10.330;2023-08-06T14:15:58;97902.22;;;21.31;89.85
24762;BME280;12865;51.934;10.330;2023-08-06T14:18:44;97902.88;;;21.22;87.76
24762;BME280;12865;51.934;10.330;2023-08-06T14:21:29;97902.31;;;21.48;92.03
24762;BME280;12865;51.934;10.330;2023-08-06T14:24:15;97884.97;;;21.49;89.13
24762;BME280;12865;51.934;10.330;2023-08-06T14:27:01;97887.00;;;21.70;86.95
24762;BME280;12865;51.934;10.330;2023-08-06T14:29:46;97881.03;;;21.57;86.52
24762;BME280;12865;51.934;10.330;2023-08-06T14:32:33;97883.16;;;21.54;87.54